sensor_id;sensor_type;location;lat;lon;timestamp;pressure;altitude;pressure_sealevel;temperature;humidity
65190;BME280;51777;53.570;9.984;2022-09-12T00:01:44;101570.53;;;14.67;100.00
65190;BME280;51777;53.570;9.984;2022-09-12T00:04:10;101578.78;;;14.62;100.00
65190;BME280;51777;53.570;9.984;2022-09-12T00:06:36;101579.91;;;14.60;100.00
65190;BME280;51777;53.570;9.984;2022-09-12T00:09:08;101576.19;;;14.62;100.00
65190;BME280;51777;53.570;9.984;2022-09-12T00:11:39;101577.84;;;14.63;100.00
65190;BME280;51777;53.570;9.984;2022-09-12T00:14:05;101583.72;;;14.65;100.00
65190;BME280;51777;53.570;9.984;2022-09-12T00:16:33;101572.41;;;14.57;100.00
65190;BME280;51777;53.570;9.984;2022-09-12T00:18:59;101576.97;;;14.55;100.00
65190;BME280;51777;53.570;9.984;2022-09-12T00:21:26;101572.56;;;14.55;100.00
65190;BME280;51777;53.570;9.984;2022-09-12T00:23:51;101560.84;;;14.51;100.00
65190;BME280;51777;53.570;9.984;2022-09-12T00:26:17;101566.03;;;14.51;100.00
65190;BME280;51777;53.570;9.984;2022-09-12T00:28:43;101561.94;;;14.49;100.00
65190;BME280;51777;53.570;9.984;2022-09-12T00:31:11;101562.09;;;14.47;100.00
65190;BME280;51777;53.570;9.984;2022-09-12T00:33:38;101557.31;;;14.43;100.00
65190;BME280;51777;53.570;9.984;2022-09-12T00:36:06;101561.03;;;14.40;100.00
65190;BME280;51777;53.570;9.984;2022-09-12T00:38:32;101552.41;;;14.39;100.00
65190;BME280;51777;53.570;9.984;2022-09-12T00:40:57;101554.03;;;14.40;100.00
65190;BME280;51777;53.570;9.984;2022-09-12T00:43:38;101551.59;;;14.39;100.00
65190;BME280;51777;53.570;9.984;2022-09-12T00:48:51;101559.00;;;14.34;100.00
65190;BME280;51777;53.570;9.984;2022-09-12T00:51:19;101547.66;;;14.35;100.00
65190;BME280;51777;53.570;9.984;2022-09-12T00:53:47;101554.13;;;14.31;100.00
65190;BME280;51777;53.570;9.984;2022-09-12T00:56:16;101551.00;;;14.27;100.00
65190;BME280;51777;53.570;9.984;2022-09-12T00:59:07;101547.88;;;14.24;100.00
65190;BME280;51777;53.570;9.984;2022-09-12T01:01:35;101556.63;;;14.23;100.00
65190;BME280;51777;53.570;9.984;2022-09-12T01:04:01;101550.63;;;14.22;100.00
65190;BME280;51777;53.570;9.984;2022-09-12T01:06:32;101550.13;;;14.19;100.00
65190;BME280;51777;53.570;9.984;2022-09-12T01:09:00;101543.94;;;14.20;100.00
65190;BME280;51777;53.570;9.984;2022-09-12T01:11:30;101550.78;;;14.21;100.00
65190;BME280;51777;53.570;9.984;2022-09-12T01:13:55;101539.56;;;14.20;100.00
65190;BME280;51777;53.570;9.984;2022-09-12T01:16:21;101536.13;;;14.20;100.00
65190;BME280;51777;53.570;9.984;2022-09-12T01:29:59;101531.81;;;14.10;100.00
65190;BME280;51777;53.570;9.984;2022-09-12T01:32:42;101536.22;;;14.10;100.00
65190;BME280;51777;53.570;9.984;2022-09-12T01:35:18;101538.97;;;14.08;100.00
65190;BME280;51777;53.570;9.984;2022-09-12T01:40:31;101535.69;;;14.06;100.00
65190;BME280;51777;53.570;9.984;2022-09-12T01:45:41;101530.41;;;13.98;100.00
65190;BME280;51777;53.570;9.984;2022-09-12T01:53:33;101525.00;;;13.92;100.00
65190;BME280;51777;53.570;9.984;2022-09-12T01:56:19;101516.38;;;13.91;100.00
65190;BME280;51777;53.570;9.984;2022-09-12T01:59:25;101519.81;;;13.92;100.00
65190;BME280;51777;53.570;9.984;2022-09-12T02:01:58;101512.41;;;13.87;100.00
65190;BME280;51777;53.570;9.984;2022-09-12T02:04:28;101509.81;;;13.87;100.00
65190;BME280;51777;53.570;9.984;2022-09-12T02:07:00;101509.81;;;13.87;100.00
65190;BME280;51777;53.570;9.984;2022-09-12T02:09:50;101505.59;;;13.86;100.00
65190;BME280;51777;53.570;9.984;2022-09-12T02:12:24;101503.97;;;13.85;100.00
65190;BME280;51777;53.570;9.984;2022-09-12T02:14:56;101504.78;;;13.86;100.00
65190;BME280;51777;53.570;9.984;2022-09-12T02:17:24;101503.28;;;13.83;100.00
65190;BME280;51777;53.570;9.984;2022-09-12T02:20:13;101498.91;;;13.84;100.00
65190;BME280;51777;53.570;9.984;2022-09-12T02:22:41;101500.69;;;13.83;100.00
65190;BME280;51777;53.570;9.984;2022-09-12T02:25:10;101500.03;;;13.81;100.00
65190;BME280;51777;53.570;9.984;2022-09-12T02:27:48;101497.75;;;13.78;100.00
65190;BME280;51777;53.570;9.984;2022-09-12T02:30:15;101498.00;;;13.75;100.00
65190;BME280;51777;53.570;9.984;2022-09-12T02:32:59;101502.38;;;13.74;100.00
65190;BME280;51777;53.570;9.984;2022-09-12T02:35:34;101497.03;;;13.76;100.00
65190;BME280;51777;53.570;9.984;2022-09-12T02:38:07;101495.56;;;13.73;100.00
65190;BME280;51777;53.570;9.984;2022-09-12T02:40:34;101494.91;;;13.71;100.00
65190;BME280;51777;53.570;9.984;2022-09-12T02:43:01;101489.84;;;13.70;100.00
65190;BME280;51777;53.570;9.984;2022-09-12T02:45:28;101491.13;;;13.66;100.00
65190;BME280;51777;53.570;9.984;2022-09-12T02:47:55;101491.38;;;13.63;100.00
65190;BME280;51777;53.570;9.984;2022-09-12T02:50:21;101480.31;;;13.61;100.00
65190;BME280;51777;53.570;9.984;2022-09-12T02:52:47;101482.94;;;13.61;100.00
65190;BME280;51777;53.570;9.984;2022-09-12T02:55:13;101482.63;;;13.64;100.00
65190;BME280;51777;53.570;9.984;2022-09-12T02:57:39;101487.31;;;13.60;100.00
65190;BME280;51777;53.570;9.984;2022-09-12T03:00:05;101484.03;;;13.58;100.00
65190;BME280;51777;53.570;9.984;2022-09-12T03:02:56;101485.69;;;13.59;100.00
65190;BME280;51777;53.570;9.984;2022-09-12T03:05:55;101489.25;;;13.58;100.00
65190;BME280;51777;53.570;9.984;2022-09-12T03:11:35;101489.91;;;13.60;100.00
65190;BME280;51777;53.570;9.984;2022-09-12T03:22:23;101495.78;;;13.62;100.00
65190;BME280;51777;53.570;9.984;2022-09-12T03:24:59;101489.38;;;13.57;100.00
65190;BME280;51777;53.570;9.984;2022-09-12T03:27:35;101489.53;;;13.55;100.00
65190;BME280;51777;53.570;9.984;2022-09-12T03:30:04;101494.19;;;13.51;100.00
65190;BME280;51777;53.570;9.984;2022-09-12T03:35:10;101489.59;;;13.45;100.00
65190;BME280;51777;53.570;9.984;2022-09-12T03:37:36;101496.56;;;13.45;100.00
65190;BME280;51777;53.570;9.984;2022-09-12T03:40:03;101493.16;;;13.44;100.00
65190;BME280;51777;53.570;9.984;2022-09-12T03:42:28;101488.94;;;13.43;100.00
65190;BME280;51777;53.570;9.984;2022-09-12T03:44:54;101493.16;;;13.44;100.00
65190;BME280;51777;53.570;9.984;2022-09-12T03:47:19;101494.13;;;13.43;100.00
65190;BME280;51777;53.570;9.984;2022-09-12T03:49:44;101492.34;;;13.44;100.00
65190;BME280;51777;53.570;9.984;2022-09-12T03:52:11;101494.13;;;13.43;100.00
65190;BME280;51777;53.570;9.984;2022-09-12T03:54:36;101494.13;;;13.43;100.00
65190;BME280;51777;53.570;9.984;2022-09-12T03:57:02;101502.06;;;13.42;100.00
65190;BME280;51777;53.570;9.984;2022-09-12T03:59:27;101496.06;;;13.41;100.00
65190;BME280;51777;53.570;9.984;2022-09-12T04:01:53;101487.56;;;13.39;100.00
65190;BME280;51777;53.570;9.984;2022-09-12T04:04:18;101489.50;;;13.37;100.00
65190;BME280;51777;53.570;9.984;2022-09-12T04:06:43;101493.72;;;13.38;100.00
65190;BME280;51777;53.570;9.984;2022-09-12T04:09:09;101488.25;;;13.41;100.00
65190;BME280;51777;53.570;9.984;2022-09-12T04:11:34;101489.59;;;13.45;100.00
65190;BME280;51777;53.570;9.984;2022-09-12T04:14:00;101494.78;;;13.45;100.00
65190;BME280;51777;53.570;9.984;2022-09-12T04:16:25;101487.00;;;13.45;100.00
65190;BME280;51777;53.570;9.984;2022-09-12T04:18:50;101488.94;;;13.43;100.00
65190;BME280;51777;53.570;9.984;2022-09-12T04:21:18;101486.47;;;13.42;100.00
65190;BME280;51777;53.570;9.984;2022-09-12T04:23:44;101482.38;;;13.39;100.00
65190;BME280;51777;53.570;9.984;2022-09-12T04:26:10;101478.94;;;13.39;100.00
65190;BME280;51777;53.570;9.984;2022-09-12T04:28:38;101482.09;;;13.42;100.00
65190;BME280;51777;53.570;9.984;2022-09-12T04:31:07;101479.19;;;13.45;100.00
65190;BME280;51777;53.570;9.984;2022-09-12T04:33:35;101478.22;;;13.46;100.00
65190;BME280;51777;53.570;9.984;2022-09-12T04:36:09;101475.63;;;13.46;100.00
65190;BME280;51777;53.570;9.984;2022-09-12T04:38:36;101478.22;;;13.46;100.00
65190;BME280;51777;53.570;9.984;2022-09-12T04:41:16;101474.53;;;13.49;100.00
65190;BME280;51777;53.570;9.984;2022-09-12T04:43:43;101475.34;;;13.49;100.00
65190;BME280;51777;53.570;9.984;2022-09-12T04:46:11;101476.16;;;13.50;100.00
65190;BME280;51777;53.570;9.984;2022-09-12T04:48:37;101484.63;;;13.52;100.00
65190;BME280;51777;53.570;9.984;2022-09-12T04:53:31;101484.09;;;13.48;100.00
65190;BME280;51777;53.570;9.984;2022-09-12T04:56:01;101487.25;;;13.52;100.00
65190;BME280;51777;53.570;9.984;2022-09-12T04:58:26;101487.25;;;13.52;100.00
65190;BME280;51777;53.570;9.984;2022-09-12T05:00:51;101482.84;;;13.52;100.00
65190;BME280;51777;53.570;9.984;2022-09-12T05:03:17;101478.59;;;13.51;100.00
65190;BME280;51777;53.570;9.984;2022-09-12T05:05:42;101478.59;;;13.51;100.00
65190;BME280;51777;53.570;9.984;2022-09-12T05:08:08;101488.72;;;13.55;100.00
65190;BME280;51777;53.570;9.984;2022-09-12T05:10:33;101479.97;;;13.56;100.00
65190;BME280;51777;53.570;9.984;2022-09-12T05:12:58;101486.78;;;13.57;100.00
65190;BME280;51777;53.570;9.984;2022-09-12T05:15:24;101491.03;;;13.58;100.00
65190;BME280;51777;53.570;9.984;2022-09-12T05:17:53;101478.69;;;13.60;100.00
65190;BME280;51777;53.570;9.984;2022-09-12T05:20:18;101482.94;;;13.61;100.00
65190;BME280;51777;53.570;9.984;2022-09-12T05:22:44;101483.75;;;13.61;100.00
65190;BME280;51777;53.570;9.984;2022-09-12T05:25:09;101486.72;;;13.66;100.00
65190;BME280;51777;53.570;9.984;2022-09-12T05:27:35;101482.06;;;13.70;100.00
65190;BME280;51777;53.570;9.984;2022-09-12T05:30:00;101480.13;;;13.72;100.00
65190;BME280;51777;53.570;9.984;2022-09-12T05:32:30;101489.25;;;13.76;100.00
65190;BME280;51777;53.570;9.984;2022-09-12T05:34:55;101483.63;;;13.80;100.00
65190;BME280;51777;53.570;9.984;2022-09-12T05:37:21;101488.22;;;13.87;100.00
65190;BME280;51777;53.570;9.984;2022-09-12T05:39:48;101490.81;;;13.87;100.00
65190;BME280;51777;53.570;9.984;2022-09-12T05:42:13;101487.94;;;13.90;100.00
65190;BME280;51777;53.570;9.984;2022-09-12T05:44:39;101488.44;;;13.93;100.00
65190;BME280;51777;53.570;9.984;2022-09-12T05:47:04;101490.91;;;13.95;100.00
65190;BME280;51777;53.570;9.984;2022-09-12T05:49:30;101484.41;;;13.99;100.00
65190;BME280;51777;53.570;9.984;2022-09-12T05:51:55;101491.09;;;14.01;100.00
65190;BME280;51777;53.570;9.984;2022-09-12T05:54:21;101496.53;;;14.08;100.00
65190;BME280;51777;53.570;9.984;2022-09-12T05:56:47;101495.94;;;14.14;100.00
65190;BME280;51777;53.570;9.984;2022-09-12T05:59:16;101502.97;;;14.22;100.00
65190;BME280;51777;53.570;9.984;2022-09-12T06:01:42;101497.19;;;14.28;100.00
65190;BME280;51777;53.570;9.984;2022-09-12T06:04:08;101492.19;;;14.34;100.00
65190;BME280;51777;53.570;9.984;2022-09-12T06:06:36;101494.34;;;14.39;100.00
65190;BME280;51777;53.570;9.984;2022-09-12T06:09:03;101495.56;;;14.45;100.00
65190;BME280;51777;53.570;9.984;2022-09-12T06:11:32;101501.91;;;14.50;100.00
65190;BME280;51777;53.570;9.984;2022-09-12T06:13:59;101498.88;;;14.55;100.00
65190;BME280;51777;53.570;9.984;2022-09-12T06:16:27;101504.59;;;14.58;100.00
65190;BME280;51777;53.570;9.984;2022-09-12T06:18:59;101507.84;;;14.60;100.00
65190;BME280;51777;53.570;9.984;2022-09-12T06:21:25;101504.28;;;14.61;100.00
65190;BME280;51777;53.570;9.984;2022-09-12T06:23:55;101505.47;;;14.67;100.00
65190;BME280;51777;53.570;9.984;2022-09-12T06:26:23;101505.00;;;14.72;100.00
65190;BME280;51777;53.570;9.984;2022-09-12T06:28:50;101511.50;;;14.76;100.00
65190;BME280;51777;53.570;9.984;2022-09-12T06:31:24;101513.53;;;14.82;100.00
65190;BME280;51777;53.570;9.984;2022-09-12T06:33:51;101508.53;;;14.88;100.00
65190;BME280;51777;53.570;9.984;2022-09-12T06:36:22;101502.53;;;14.96;100.00
65190;BME280;51777;53.570;9.984;2022-09-12T06:38:53;101503.84;;;15.00;100.00
65190;BME280;51777;53.570;9.984;2022-09-12T06:41:19;101504.06;;;15.07;100.00
65190;BME280;51777;53.570;9.984;2022-09-12T06:43:44;101504.91;;;15.15;100.00
65190;BME280;51777;53.570;9.984;2022-09-12T06:46:10;101505.75;;;15.24;100.00
65190;BME280;51777;53.570;9.984;2022-09-12T06:48:37;101501.53;;;15.31;100.00
65190;BME280;51777;53.570;9.984;2022-09-12T06:51:05;101498.97;;;15.39;100.00
65190;BME280;51777;53.570;9.984;2022-09-12T06:53:34;101490.19;;;15.48;100.00
65190;BME280;51777;53.570;9.984;2022-09-12T06:56:10;101486.97;;;15.54;100.00
65190;BME280;51777;53.570;9.984;2022-09-12T06:58:36;101485.34;;;15.62;100.00
65190;BME280;51777;53.570;9.984;2022-09-12T07:01:04;101493.69;;;15.65;100.00
65190;BME280;51777;53.570;9.984;2022-09-12T07:03:30;101493.53;;;15.75;100.00
65190;BME280;51777;53.570;9.984;2022-09-12T07:05:57;101504.47;;;15.86;100.00
65190;BME280;51777;53.570;9.984;2022-09-12T07:08:26;101500.25;;;16.18;100.00
65190;BME280;51777;53.570;9.984;2022-09-12T07:10:56;101502.34;;;16.55;100.00
65190;BME280;51777;53.570;9.984;2022-09-12T07:13:23;101501.84;;;16.68;100.00
65190;BME280;51777;53.570;9.984;2022-09-12T07:15:49;101499.25;;;16.76;100.00
65190;BME280;51777;53.570;9.984;2022-09-12T07:18:15;101505.41;;;16.91;100.00
65190;BME280;51777;53.570;9.984;2022-09-12T07:20:42;101507.00;;;17.00;100.00
65190;BME280;51777;53.570;9.984;2022-09-12T07:23:07;101502.59;;;17.01;99.98
65190;BME280;51777;53.570;9.984;2022-09-12T07:25:33;101504.06;;;17.03;99.87
65190;BME280;51777;53.570;9.984;2022-09-12T07:27:58;101501.56;;;17.10;98.62
65190;BME280;51777;53.570;9.984;2022-09-12T07:30:24;101496.31;;;17.18;97.15
65190;BME280;51777;53.570;9.984;2022-09-12T07:32:52;101487.31;;;17.21;96.96
65190;BME280;51777;53.570;9.984;2022-09-12T07:35:19;101486.63;;;17.27;96.71
65190;BME280;51777;53.570;9.984;2022-09-12T07:37:44;101492.72;;;17.19;95.78
65190;BME280;51777;53.570;9.984;2022-09-12T07:40:12;101488.91;;;17.30;95.77
65190;BME280;51777;53.570;9.984;2022-09-12T07:42:37;101482.94;;;17.44;95.65
65190;BME280;51777;53.570;9.984;2022-09-12T07:45:03;101484.81;;;17.58;95.90
65190;BME280;51777;53.570;9.984;2022-09-12T07:47:28;101483.78;;;17.68;93.63
65190;BME280;51777;53.570;9.984;2022-09-12T07:49:54;101489.81;;;17.76;93.75
65190;BME280;51777;53.570;9.984;2022-09-12T07:52:20;101482.03;;;17.91;93.35
65190;BME280;51777;53.570;9.984;2022-09-12T07:54:45;101481.69;;;18.09;92.60
65190;BME280;51777;53.570;9.984;2022-09-12T07:57:10;101484.66;;;18.29;90.50
65190;BME280;51777;53.570;9.984;2022-09-12T07:59:36;101483.59;;;18.53;89.14
65190;BME280;51777;53.570;9.984;2022-09-12T08:02:12;101494.66;;;18.77;87.74
65190;BME280;51777;53.570;9.984;2022-09-12T08:04:38;101490.38;;;19.06;86.58
65190;BME280;51777;53.570;9.984;2022-09-12T08:07:04;101498.09;;;19.44;85.35
65190;BME280;51777;53.570;9.984;2022-09-12T08:09:31;101501.56;;;20.30;80.29
65190;BME280;51777;53.570;9.984;2022-09-12T08:11:56;101509.19;;;21.96;73.31
65190;BME280;51777;53.570;9.984;2022-09-12T08:14:22;101515.94;;;23.54;64.24
65190;BME280;51777;53.570;9.984;2022-09-12T08:16:47;101523.06;;;24.78;58.63
65190;BME280;51777;53.570;9.984;2022-09-12T08:19:13;101523.69;;;25.77;54.84
65190;BME280;51777;53.570;9.984;2022-09-12T08:21:38;101527.47;;;26.46;51.24
65190;BME280;51777;53.570;9.984;2022-09-12T08:24:05;101525.09;;;26.97;50.65
65190;BME280;51777;53.570;9.984;2022-09-12T08:26:32;101535.47;;;27.38;48.69
65190;BME280;51777;53.570;9.984;2022-09-12T08:28:57;101540.31;;;27.41;47.77
65190;BME280;51777;53.570;9.984;2022-09-12T08:31:24;101530.84;;;27.17;46.78
65190;BME280;51777;53.570;9.984;2022-09-12T08:33:54;101529.13;;;26.99;46.81
65190;BME280;51777;53.570;9.984;2022-09-12T08:36:21;101519.34;;;26.76;47.41
65190;BME280;51777;53.570;9.984;2022-09-12T08:38:50;101523.88;;;26.41;48.01
65190;BME280;51777;53.570;9.984;2022-09-12T08:44:35;101520.88;;;26.25;46.81
65190;BME280;51777;53.570;9.984;2022-09-12T08:57:46;101511.78;;;26.33;48.13
65190;BME280;51777;53.570;9.984;2022-09-12T09:00:12;101510.63;;;26.41;47.78
65190;BME280;51777;53.570;9.984;2022-09-12T09:03:00;101508.44;;;26.38;47.67
65190;BME280;51777;53.570;9.984;2022-09-12T09:06:06;101504.53;;;26.40;46.13
65190;BME280;51777;53.570;9.984;2022-09-12T09:11:25;101505.03;;;26.77;45.70
65190;BME280;51777;53.570;9.984;2022-09-12T09:17:16;101497.06;;;27.29;43.50
65190;BME280;51777;53.570;9.984;2022-09-12T09:19:49;101502.41;;;27.46;43.67
65190;BME280;51777;53.570;9.984;2022-09-12T09:22:33;101491.69;;;27.69;43.18
65190;BME280;51777;53.570;9.984;2022-09-12T09:25:15;101494.59;;;27.68;43.43
65190;BME280;51777;53.570;9.984;2022-09-12T09:28:05;101490.31;;;27.38;43.98
65190;BME280;51777;53.570;9.984;2022-09-12T09:30:33;101488.31;;;27.45;44.17
65190;BME280;51777;53.570;9.984;2022-09-12T09:33:01;101488.06;;;27.30;43.57
65190;BME280;51777;53.570;9.984;2022-09-12T09:35:46;101490.03;;;27.23;44.37
65190;BME280;51777;53.570;9.984;2022-09-12T09:40:58;101492.09;;;26.92;44.85
65190;BME280;51777;53.570;9.984;2022-09-12T09:43:28;101479.72;;;27.10;44.19
65190;BME280;51777;53.570;9.984;2022-09-12T09:45:56;101482.44;;;27.15;44.88
65190;BME280;51777;53.570;9.984;2022-09-12T09:48:30;101476.38;;;27.03;44.70
65190;BME280;51777;53.570;9.984;2022-09-12T09:51:02;101483.22;;;26.87;45.24
65190;BME280;51777;53.570;9.984;2022-09-12T09:53:32;101476.84;;;26.48;46.63
65190;BME280;51777;53.570;9.984;2022-09-12T09:56:02;101477.88;;;26.23;47.04
65190;BME280;51777;53.570;9.984;2022-09-12T09:58:34;101469.22;;;26.16;47.01
65190;BME280;51777;53.570;9.984;2022-09-12T10:01:04;101473.94;;;26.02;46.79
65190;BME280;51777;53.570;9.984;2022-09-12T10:03:32;101473.38;;;25.89;47.13
65190;BME280;51777;53.570;9.984;2022-09-12T10:08:48;101469.91;;;26.00;46.55
65190;BME280;51777;53.570;9.984;2022-09-12T10:11:21;101471.88;;;26.40;45.81
65190;BME280;51777;53.570;9.984;2022-09-12T10:13:56;101462.03;;;26.75;45.34
65190;BME280;51777;53.570;9.984;2022-09-12T10:16:26;101468.78;;;26.95;44.09
65190;BME280;51777;53.570;9.984;2022-09-12T10:18:56;101466.50;;;26.86;43.83
65190;BME280;51777;53.570;9.984;2022-09-12T10:21:49;101463.31;;;26.61;44.65
65190;BME280;51777;53.570;9.984;2022-09-12T10:24:25;101462.63;;;26.54;44.64
65190;BME280;51777;53.570;9.984;2022-09-12T10:30:05;101465.78;;;26.39;45.25
65190;BME280;51777;53.570;9.984;2022-09-12T10:32:41;101464.16;;;26.50;44.42
65190;BME280;51777;53.570;9.984;2022-09-12T10:37:50;101461.16;;;26.46;44.77
65190;BME280;51777;53.570;9.984;2022-09-12T10:40:25;101461.97;;;26.47;45.00
65190;BME280;51777;53.570;9.984;2022-09-12T10:42:56;101459.69;;;26.79;44.80
65190;BME280;51777;53.570;9.984;2022-09-12T10:45:33;101453.69;;;26.83;43.53
65190;BME280;51777;53.570;9.984;2022-09-12T10:50:47;101454.69;;;26.94;43.81
65190;BME280;51777;53.570;9.984;2022-09-12T10:53:27;101450.50;;;27.10;44.12
65190;BME280;51777;53.570;9.984;2022-09-12T10:56:12;101444.72;;;27.13;43.86
65190;BME280;51777;53.570;9.984;2022-09-12T11:12:26;101424.03;;;26.86;42.61
65190;BME280;51777;53.570;9.984;2022-09-12T11:21:18;101429.91;;;26.88;41.96
65190;BME280;51777;53.570;9.984;2022-09-12T11:29:56;101421.44;;;26.63;42.05
65190;BME280;51777;53.570;9.984;2022-09-12T11:37:58;101414.38;;;27.09;41.19
65190;BME280;51777;53.570;9.984;2022-09-12T11:45:48;101412.56;;;27.43;42.58
65190;BME280;51777;53.570;9.984;2022-09-12T11:48:26;101411.25;;;27.12;41.88
65190;BME280;51777;53.570;9.984;2022-09-12T11:50:57;101412.66;;;27.31;42.06
65190;BME280;51777;53.570;9.984;2022-09-12T11:53:31;101401.84;;;26.92;41.13
65190;BME280;51777;53.570;9.984;2022-09-12T11:56:11;101403.88;;;26.45;43.39
65190;BME280;51777;53.570;9.984;2022-09-12T11:58:39;101396.16;;;26.72;43.41
65190;BME280;51777;53.570;9.984;2022-09-12T12:01:11;101398.47;;;26.97;42.17
65190;BME280;51777;53.570;9.984;2022-09-12T12:03:44;101404.41;;;27.16;41.71
65190;BME280;51777;53.570;9.984;2022-09-12T12:06:15;101400.19;;;27.32;41.88
65190;BME280;51777;53.570;9.984;2022-09-12T12:08:44;101403.88;;;27.31;41.21
65190;BME280;51777;53.570;9.984;2022-09-12T12:11:12;101390.09;;;26.88;42.63
65190;BME280;51777;53.570;9.984;2022-09-12T12:13:47;101391.56;;;26.96;42.69
65190;BME280;51777;53.570;9.984;2022-09-12T12:16:23;101391.53;;;27.25;41.94
65190;BME280;51777;53.570;9.984;2022-09-12T12:19:02;101384.94;;;27.77;40.68
65190;BME280;51777;53.570;9.984;2022-09-12T12:24:23;101389.03;;;28.41;40.29
65190;BME280;51777;53.570;9.984;2022-09-12T12:34:35;101384.97;;;29.83;35.58
65190;BME280;51777;53.570;9.984;2022-09-12T12:42:55;101385.72;;;31.19;33.39
65190;BME280;51777;53.570;9.984;2022-09-12T12:47:43;101380.88;;;29.65;36.03
65190;BME280;51777;53.570;9.984;2022-09-12T12:55:16;101372.81;;;28.25;38.13
65190;BME280;51777;53.570;9.984;2022-09-12T12:57:51;101367.78;;;27.85;39.13
65190;BME280;51777;53.570;9.984;2022-09-12T13:00:25;101363.28;;;27.52;39.12
65190;BME280;51777;53.570;9.984;2022-09-12T13:05:44;101353.44;;;26.57;41.86
65190;BME280;51777;53.570;9.984;2022-09-12T13:08:27;101352.78;;;26.38;42.24
65190;BME280;51777;53.570;9.984;2022-09-12T13:10:59;101340.56;;;26.25;42.50
65190;BME280;51777;53.570;9.984;2022-09-12T13:16:09;101335.91;;;26.56;42.66
65190;BME280;51777;53.570;9.984;2022-09-12T13:18:46;101330.56;;;26.84;40.74
65190;BME280;51777;53.570;9.984;2022-09-12T13:21:15;101328.13;;;27.28;40.02
65190;BME280;51777;53.570;9.984;2022-09-12T13:23:42;101329.38;;;27.76;37.80
65190;BME280;51777;53.570;9.984;2022-09-12T13:26:13;101327.56;;;28.42;37.05
65190;BME280;51777;53.570;9.984;2022-09-12T13:28:44;101318.06;;;29.05;35.49
65190;BME280;51777;53.570;9.984;2022-09-12T13:33:42;101311.50;;;29.55;34.59
65190;BME280;51777;53.570;9.984;2022-09-12T13:36:31;101311.63;;;29.01;35.41
65190;BME280;51777;53.570;9.984;2022-09-12T13:39:27;101305.63;;;28.57;36.75
65190;BME280;51777;53.570;9.984;2022-09-12T13:44:50;101283.13;;;27.38;38.82
65190;BME280;51777;53.570;9.984;2022-09-12T13:47:30;101284.97;;;26.87;39.78
65190;BME280;51777;53.570;9.984;2022-09-12T13:49:58;101279.34;;;26.39;40.92
65190;BME280;51777;53.570;9.984;2022-09-12T13:52:29;101277.56;;;26.04;42.25
65190;BME280;51777;53.570;9.984;2022-09-12T13:54:58;101273.13;;;25.93;42.64
65190;BME280;51777;53.570;9.984;2022-09-12T13:57:29;101268.31;;;25.78;43.23
65190;BME280;51777;53.570;9.984;2022-09-12T13:59:56;101261.38;;;25.65;43.32
65190;BME280;51777;53.570;9.984;2022-09-12T14:02:24;101264.41;;;25.57;43.29
65190;BME280;51777;53.570;9.984;2022-09-12T14:04:52;101261.63;;;25.40;43.59
65190;BME280;51777;53.570;9.984;2022-09-12T14:07:51;101250.13;;;25.46;44.41
65190;BME280;51777;53.570;9.984;2022-09-12T14:10:26;101261.28;;;25.60;43.46
65190;BME280;51777;53.570;9.984;2022-09-12T14:12:53;101260.34;;;25.66;43.89
65190;BME280;51777;53.570;9.984;2022-09-12T14:15:29;101253.16;;;26.02;42.95
65190;BME280;51777;53.570;9.984;2022-09-12T14:17:57;101259.56;;;26.91;41.50
65190;BME280;51777;53.570;9.984;2022-09-12T14:20:29;101266.81;;;28.61;38.38
65190;BME280;51777;53.570;9.984;2022-09-12T14:23:01;101266.22;;;29.60;35.63
65190;BME280;51777;53.570;9.984;2022-09-12T14:25:38;101262.78;;;30.43;33.81
65190;BME280;51777;53.570;9.984;2022-09-12T14:28:06;101277.25;;;31.98;31.07
65190;BME280;51777;53.570;9.984;2022-09-12T14:30:35;101275.50;;;33.96;28.84
65190;BME280;51777;53.570;9.984;2022-09-12T14:35:46;101275.53;;;34.15;28.01
65190;BME280;51777;53.570;9.984;2022-09-12T14:38:22;101275.84;;;34.97;26.87
65190;BME280;51777;53.570;9.984;2022-09-12T14:40:59;101276.81;;;36.11;25.68
65190;BME280;51777;53.570;9.984;2022-09-12T14:43:30;101275.03;;;36.43;25.17
65190;BME280;51777;53.570;9.984;2022-09-12T14:46:00;101274.19;;;35.98;26.08
65190;BME280;51777;53.570;9.984;2022-09-12T14:48:29;101272.53;;;36.33;25.24
65190;BME280;51777;53.570;9.984;2022-09-12T14:50:56;101257.94;;;35.89;25.72
65190;BME280;51777;53.570;9.984;2022-09-12T14:53:25;101261.91;;;35.78;25.71
65190;BME280;51777;53.570;9.984;2022-09-12T14:58:25;101242.50;;;33.96;26.65
65190;BME280;51777;53.570;9.984;2022-09-12T15:00:56;101240.25;;;32.88;29.32
65190;BME280;51777;53.570;9.984;2022-09-12T15:03:29;101232.19;;;31.66;30.19
65190;BME280;51777;53.570;9.984;2022-09-12T15:05:55;101222.22;;;30.81;32.18
65190;BME280;51777;53.570;9.984;2022-09-12T15:08:21;101231.75;;;31.33;32.02
65190;BME280;51777;53.570;9.984;2022-09-12T15:10:46;101227.50;;;31.32;31.72
65190;BME280;51777;53.570;9.984;2022-09-12T15:13:17;101213.16;;;30.77;32.14
65190;BME280;51777;53.570;9.984;2022-09-12T15:15:56;101211.53;;;30.46;32.45
65190;BME280;51777;53.570;9.984;2022-09-12T15:18:23;101215.56;;;30.63;32.35
65190;BME280;51777;53.570;9.984;2022-09-12T15:20:52;101206.47;;;30.75;32.26
65190;BME280;51777;53.570;9.984;2022-09-12T15:23:32;101205.41;;;30.40;32.71
65190;BME280;51777;53.570;9.984;2022-09-12T15:25:59;101204.53;;;31.21;32.15
65190;BME280;51777;53.570;9.984;2022-09-12T15:28:25;101211.66;;;32.45;30.07
65190;BME280;51777;53.570;9.984;2022-09-12T15:30:52;101214.31;;;33.32;28.74
65190;BME280;51777;53.570;9.984;2022-09-12T15:33:20;101202.91;;;32.39;29.66